Stockholm Arlanda, Sweden

9:56 AM CEST on March 29, 2015 (GMT +0200)
Kattsta | | Change Station
CLOSE
Current Station
Personal Weather Station
Location: Kattsta, Stockholm
Elevation: 64 ft
Nearby Weather Stations

Elev 64 ft 59.65 °N, 17.90 °E | Updated 10 minutes ago

Overcast
Overcast
38.3 °F
Feels Like 33 °F
N
7.6
Wind Variable Wind from SE
Gusts 13.6 mph

Today
High -- | Low -- °F
--% Chance of Precip.
Yesterday
High -- | Low -- °F
Precip. -- in
6:24 AM 7:23 PM
Waxing Gibbous, 69% visible
Pressure 29.44 in
Visibility 5.6 miles
Clouds Mostly Cloudy 1300 ft
Windchill 33 °F
Dew Point 35 °F
Humidity 84%
Rainfall 0.00 in
Snow Depth Not available.
UV 1 out of 12
Pollen Not available.
Air Quality Not available.
Flu Activity Not available.
METAR ESSA 290750Z 16017KT 9000 -RA BKN013 04/02 Q0997 REDZ R01L/09//95 R08/09//95 R01R/09//95 BECMG 4000 RA BKN012

More Conditions Fewer Conditions

Pressure 29.44 in
Visibility 5.6 miles
Clouds Mostly Cloudy 1300 ft
Windchill 33 °F
Dew Point 35 °F
Humidity 84%
Rainfall 0.00 in
Snow Depth Not available.
UV 1 out of 12
Pollen Not available.
Air Quality Not available.
Flu Activity Not available.
METAR ESSA 290750Z 16017KT 9000 -RA BKN013 04/02 Q0997 REDZ R01L/09//95 R08/09//95 R01R/09//95 BECMG 4000 RA BKN012

More Conditions Fewer Conditions

10-Day Weather Forecast

Almanac

Astronomy

Mar. 29, 2015 Rise Set
Actual Time
Civil Twilight
Nautical Twilight
Astronomical Twilight
Moon
Length of Visible Light
Length of Day
Tomorrow will be .
, % of the Moon is Illuminated

Today's Extremes

Country Highs Country Lows

Community

WunderPhotos

Upload Photos

1,809,187 photos uploaded!

WunderBlogs® & News

Nearby

Air Quality

  Air Quality AQ Index Pollutant
Not available.

Snow Depth

Station Depth Elevation

Earthquake Activity

City Distance Mag. Time & Date
Minimum magnitude displayed is 2.5.

Coastal Water Temperatures

Place Temperature

Stations

Nearby Weather Stations

Station Location Temp. Windchill Dew Point Humidity Wind Precip. Elev Updated Type